createdAt,value
2018-05-18T00:00:22.671Z,27.07
2018-05-18T00:00:55.223Z,20.50
2018-05-18T00:01:27.765Z,19.80
2018-05-18T00:02:00.279Z,22.43
2018-05-18T00:02:32.799Z,32.23
2018-05-18T00:03:05.367Z,25.40
2018-05-18T00:03:37.901Z,19.47
2018-05-18T00:04:10.417Z,20.50
2018-05-18T00:04:43.019Z,26.87
2018-05-18T00:05:16.347Z,24.90
2018-05-18T00:05:48.887Z,27.80
2018-05-18T00:06:21.411Z,20.93
2018-05-18T00:06:53.943Z,27.03
2018-05-18T00:07:26.484Z,20.83
2018-05-18T00:07:59.043Z,27.20
2018-05-18T00:08:31.635Z,26.43
2018-05-18T00:09:04.188Z,26.50
2018-05-18T00:09:36.715Z,27.27
2018-05-18T00:10:09.267Z,24.33
2018-05-18T00:10:42.600Z,27.13
2018-05-18T00:11:15.155Z,22.23
2018-05-18T00:11:47.683Z,19.73
2018-05-18T00:12:20.224Z,25.80
2018-05-18T00:12:52.889Z,21.83
2018-05-18T00:13:25.500Z,24.87
2018-05-18T00:13:58.599Z,25.73
2018-05-18T00:14:31.120Z,24.07
2018-05-18T00:15:03.646Z,25.13
2018-05-18T00:15:37.051Z,23.80
2018-05-18T00:16:09.593Z,17.13
2018-05-18T00:16:43.052Z,21.07
2018-05-18T00:17:15.581Z,31.37
2018-05-18T00:17:48.100Z,26.30
2018-05-18T00:18:21.420Z,22.27
2018-05-18T00:18:54.311Z,25.57
2018-05-18T00:19:28.132Z,21.37
2018-05-18T00:20:00.701Z,23.67
2018-05-18T00:20:33.259Z,25.47
2018-05-18T00:21:05.776Z,30.17
2018-05-18T00:21:38.320Z,28.13
2018-05-18T00:22:10.844Z,20.17
2018-05-18T00:22:43.396Z,21.67
2018-05-18T00:23:15.936Z,24.57
2018-05-18T00:23:48.516Z,23.97
2018-05-18T00:24:21.035Z,22.30
2018-05-18T00:24:53.548Z,26.30
2018-05-18T00:25:26.063Z,24.60
2018-05-18T00:25:58.607Z,22.17
2018-05-18T00:26:31.164Z,26.37
2018-05-18T00:27:03.704Z,24.77
2018-05-18T00:27:36.223Z,19.93
2018-05-18T00:28:08.772Z,23.80
2018-05-18T00:28:41.311Z,23.30
2018-05-18T00:29:13.851Z,22.57
2018-05-18T00:29:46.398Z,25.63
2018-05-18T00:30:18.928Z,21.70
2018-05-18T00:30:52.223Z,29.13
2018-05-18T00:31:24.764Z,30.30
2018-05-18T00:31:57.278Z,24.97
2018-05-18T00:32:29.803Z,23.70
2018-05-18T00:33:03.089Z,24.50
2018-05-18T00:33:35.640Z,29.33
2018-05-18T00:34:08.207Z,28.17
2018-05-18T00:34:40.735Z,29.23
2018-05-18T00:35:13.268Z,29.00
2018-05-18T00:35:45.787Z,29.87
2018-05-18T00:36:18.304Z,21.13
2018-05-18T00:36:50.829Z,28.73
2018-05-18T00:37:23.372Z,27.73
2018-05-18T00:37:55.899Z,30.80
2018-05-18T00:38:28.416Z,24.27
2018-05-18T00:39:01.722Z,22.63
2018-05-18T00:39:34.232Z,26.03
2018-05-18T00:40:06.767Z,26.60
2018-05-18T00:40:39.283Z,25.70
2018-05-18T00:41:12.567Z,24.57
2018-05-18T00:41:45.106Z,28.53
2018-05-18T00:42:18.406Z,23.07
2018-05-18T00:42:55.267Z,26.00
2018-05-18T00:43:27.820Z,22.43
2018-05-18T00:44:00.368Z,21.67
2018-05-18T00:44:32.903Z,23.00
2018-05-18T00:45:05.448Z,26.80
2018-05-18T00:45:37.979Z,24.70
2018-05-18T00:46:10.524Z,21.87
2018-05-18T00:46:43.046Z,23.43
2018-05-18T00:47:15.614Z,24.07
2018-05-18T00:47:48.163Z,28.23
2018-05-18T00:48:20.702Z,22.73
2018-05-18T00:48:53.999Z,24.23
2018-05-18T00:49:26.528Z,26.53
2018-05-18T00:49:59.908Z,21.07
2018-05-18T00:50:33.208Z,23.63
2018-05-18T00:51:05.752Z,23.60
2018-05-18T00:51:39.044Z,22.80
2018-05-18T00:52:11.591Z,26.37
2018-05-18T00:52:44.210Z,23.57
2018-05-18T00:53:16.789Z,25.20
2018-05-18T00:53:49.307Z,19.97
2018-05-18T00:54:21.855Z,24.17
2018-05-18T00:54:54.421Z,20.07
2018-05-18T00:55:38.686Z,19.23
2018-05-18T00:56:11.209Z,22.03
2018-05-18T00:56:43.772Z,20.60
2018-05-18T00:57:16.340Z,28.67
2018-05-18T00:57:48.915Z,29.37
2018-05-18T00:58:21.479Z,25.00
2018-05-18T00:58:54.037Z,22.53
2018-05-18T00:59:26.579Z,24.50
2018-05-18T00:59:59.131Z,25.13
2018-05-18T01:00:31.655Z,20.87
2018-05-18T01:01:04.199Z,24.63
2018-05-18T01:01:36.738Z,25.93
2018-05-18T01:02:09.300Z,26.17
2018-05-18T01:02:41.846Z,24.50
2018-05-18T01:03:14.391Z,24.57
2018-05-18T01:03:46.952Z,25.63
2018-05-18T01:04:19.492Z,25.17
2018-05-18T01:04:52.020Z,28.07
2018-05-18T01:05:24.564Z,23.97
2018-05-18T01:05:57.223Z,26.87
2018-05-18T01:06:29.829Z,24.47
2018-05-18T01:07:02.361Z,29.77
2018-05-18T01:07:34.904Z,24.20
2018-05-18T01:08:07.455Z,27.53
2018-05-18T01:08:40.024Z,18.07
2018-05-18T01:09:12.536Z,19.90
2018-05-18T01:09:45.112Z,24.33
2018-05-18T01:10:18.433Z,20.03
2018-05-18T01:10:50.993Z,24.23
2018-05-18T01:11:23.531Z,25.30
2018-05-18T01:11:56.811Z,24.27
2018-05-18T01:12:29.328Z,21.20
2018-05-18T01:13:01.851Z,26.50
2018-05-18T01:13:34.376Z,24.83
2018-05-18T01:14:06.934Z,21.53
2018-05-18T01:14:39.483Z,19.77
2018-05-18T01:15:11.999Z,28.77
2018-05-18T01:15:44.581Z,27.23
2018-05-18T01:16:17.078Z,19.03
2018-05-18T01:16:49.632Z,25.30
2018-05-18T01:17:22.203Z,25.83
2018-05-18T01:17:54.776Z,36.03
2018-05-18T01:18:28.087Z,35.63
2018-05-18T01:19:00.673Z,42.17
2018-05-18T01:19:33.226Z,44.10
2018-05-18T01:20:05.747Z,51.03
2018-05-18T01:20:38.268Z,50.63
2018-05-18T01:21:10.786Z,54.60
2018-05-18T01:21:43.355Z,51.83
2018-05-18T01:22:15.883Z,50.37
2018-05-18T01:22:48.428Z,53.87
2018-05-18T01:23:20.954Z,52.23
2018-05-18T01:23:54.248Z,51.93
2018-05-18T01:24:26.803Z,58.03
2018-05-18T01:24:59.334Z,52.03
2018-05-18T01:25:31.937Z,55.00
2018-05-18T01:26:04.467Z,54.27
2018-05-18T01:26:37.016Z,54.40
2018-05-18T01:27:10.303Z,47.57
2018-05-18T01:27:42.848Z,41.97
2018-05-18T01:28:15.416Z,37.73
2018-05-18T01:28:47.954Z,41.77
2018-05-18T01:29:20.467Z,45.47
2018-05-18T01:29:52.988Z,36.63
2018-05-18T01:30:25.527Z,35.10
2018-05-18T01:30:58.127Z,35.97
2018-05-18T01:31:30.726Z,34.47
2018-05-18T01:32:03.263Z,32.23
2018-05-18T01:32:35.818Z,24.60
2018-05-18T01:33:08.372Z,28.17
2018-05-18T01:33:40.914Z,22.30
2018-05-18T01:34:13.486Z,24.83
2018-05-18T01:34:46.024Z,28.40
2018-05-18T01:35:18.572Z,22.10
2018-05-18T01:35:51.107Z,24.47
2018-05-18T01:36:23.626Z,26.47
2018-05-18T01:36:56.183Z,24.33
2018-05-18T01:37:28.703Z,22.53
2018-05-18T01:38:01.260Z,28.50
2018-05-18T01:38:33.782Z,21.57
2018-05-18T01:39:07.131Z,25.93
2018-05-18T01:39:39.695Z,25.17
2018-05-18T01:40:12.239Z,24.37
2018-05-18T01:40:45.523Z,21.73
2018-05-18T01:41:18.056Z,19.33
2018-05-18T01:41:50.610Z,21.77
2018-05-18T01:42:23.169Z,21.90
2018-05-18T01:42:55.724Z,28.07
2018-05-18T01:43:28.964Z,22.20
2018-05-18T01:44:01.539Z,20.10
2018-05-18T01:44:34.116Z,22.40
2018-05-18T01:45:06.663Z,28.30
2018-05-18T01:45:39.208Z,21.70
2018-05-18T01:46:11.751Z,22.07
2018-05-18T01:46:44.273Z,22.93
2018-05-18T01:47:16.836Z,22.07
2018-05-18T01:47:49.367Z,18.27
2018-05-18T01:48:21.932Z,26.00
2018-05-18T01:48:54.471Z,23.83
2018-05-18T01:49:27.015Z,23.40
2018-05-18T01:50:00.408Z,22.60
2018-05-18T01:50:32.960Z,19.30
2018-05-18T01:51:05.505Z,23.47
2018-05-18T01:51:38.064Z,24.27
2018-05-18T01:52:10.607Z,20.73
2018-05-18T01:52:43.128Z,22.47
2018-05-18T01:53:15.657Z,21.93
2018-05-18T01:53:48.179Z,24.37
2018-05-18T01:54:20.727Z,19.60
2018-05-18T01:54:53.250Z,20.23
2018-05-18T01:55:25.813Z,23.60
2018-05-18T01:55:58.527Z,32.05
2018-05-18T01:56:31.047Z,23.47
2018-05-18T01:57:03.599Z,30.30
2018-05-18T01:57:36.808Z,29.00
2018-05-18T01:58:09.369Z,31.53
2018-05-18T01:58:41.931Z,26.77
2018-05-18T01:59:14.463Z,31.30
2018-05-18T01:59:47.035Z,30.50
2018-05-18T02:00:19.590Z,24.37
2018-05-18T02:00:52.144Z,21.77
2018-05-18T02:01:24.663Z,25.50
2018-05-18T02:01:57.210Z,21.77
2018-05-18T02:02:29.731Z,28.53
2018-05-18T02:03:03.064Z,28.73
2018-05-18T02:03:35.663Z,28.50
2018-05-18T02:04:08.191Z,22.90
2018-05-18T02:04:40.751Z,29.60
2018-05-18T02:05:13.274Z,26.00
2018-05-18T02:05:45.818Z,26.03
2018-05-18T02:06:18.354Z,32.97
2018-05-18T02:06:50.882Z,30.77
2018-05-18T02:07:23.425Z,29.77
2018-05-18T02:07:56.205Z,30.67
2018-05-18T02:08:28.735Z,36.60
2018-05-18T02:09:02.050Z,37.10
2018-05-18T02:09:34.595Z,37.40
2018-05-18T02:10:07.145Z,37.17
2018-05-18T02:10:39.691Z,34.93
2018-05-18T02:11:12.239Z,31.67
2018-05-18T02:11:44.790Z,33.70
2018-05-18T02:12:17.311Z,34.17
2018-05-18T02:12:50.642Z,32.93
2018-05-18T02:13:23.164Z,27.17
2018-05-18T02:13:55.712Z,29.77
2018-05-18T02:14:28.260Z,30.17
2018-05-18T02:15:00.784Z,24.40
2018-05-18T02:15:34.059Z,27.13
2018-05-18T02:16:06.583Z,33.10
2018-05-18T02:16:39.102Z,29.00
2018-05-18T02:17:11.626Z,27.03
2018-05-18T02:17:44.147Z,23.87
2018-05-18T02:18:16.687Z,28.07
2018-05-18T02:18:49.216Z,28.17
2018-05-18T02:19:21.737Z,25.90
2018-05-18T02:19:54.311Z,25.87
2018-05-18T02:20:27.605Z,27.50
2018-05-18T02:21:00.147Z,31.30
2018-05-18T02:21:32.717Z,38.77
2018-05-18T02:22:05.254Z,37.60
2018-05-18T02:22:37.828Z,40.53
2018-05-18T02:23:10.390Z,49.90
2018-05-18T02:23:42.935Z,47.13
2018-05-18T02:24:15.475Z,37.67
2018-05-18T02:24:48.034Z,41.40
2018-05-18T02:25:20.603Z,44.10
2018-05-18T02:25:53.128Z,39.60
2018-05-18T02:26:26.424Z,40.17
2018-05-18T02:26:58.956Z,32.50
2018-05-18T02:27:31.499Z,40.20
2018-05-18T02:28:04.220Z,40.03
2018-05-18T02:28:36.749Z,33.23
2018-05-18T02:29:09.379Z,38.40
2018-05-18T02:29:41.934Z,42.03
2018-05-18T02:30:14.475Z,37.80
2018-05-18T02:30:46.997Z,35.43
2018-05-18T02:31:19.549Z,38.17
2018-05-18T02:31:52.117Z,40.83
2018-05-18T02:32:24.679Z,40.07
2018-05-18T02:32:57.241Z,39.63
2018-05-18T02:33:29.785Z,37.30
2018-05-18T02:34:02.329Z,40.90
2018-05-18T02:34:34.859Z,40.33
2018-05-18T02:35:07.409Z,37.20
2018-05-18T02:35:39.988Z,36.07
2018-05-18T02:36:13.308Z,38.10
2018-05-18T02:36:45.876Z,31.57
2018-05-18T02:37:18.431Z,34.13
2018-05-18T02:37:50.957Z,32.03
2018-05-18T02:38:24.278Z,34.30
2018-05-18T02:38:56.871Z,34.93
2018-05-18T02:39:29.424Z,34.37
2018-05-18T02:40:01.977Z,34.60
2018-05-18T02:40:34.511Z,28.03
2018-05-18T02:41:07.071Z,27.90
2018-05-18T02:41:39.622Z,33.10
2018-05-18T02:42:12.176Z,31.57
2018-05-18T02:42:44.704Z,29.67
2018-05-18T02:43:17.251Z,26.30
2018-05-18T02:43:49.827Z,22.50
2018-05-18T02:44:22.364Z,29.17
2018-05-18T02:44:55.158Z,27.20
2018-05-18T02:45:27.711Z,25.60
2018-05-18T02:46:00.268Z,29.03
2018-05-18T02:46:32.824Z,26.03
2018-05-18T02:47:05.351Z,24.00
2018-05-18T02:47:38.681Z,27.57
2018-05-18T02:48:11.248Z,26.60
2018-05-18T02:48:43.796Z,26.87
2018-05-18T02:49:16.336Z,27.53
2018-05-18T02:49:49.657Z,25.50
2018-05-18T02:50:22.211Z,20.60
2018-05-18T02:50:54.799Z,19.67
2018-05-18T02:51:27.377Z,21.67
2018-05-18T02:51:59.904Z,21.83
2018-05-18T02:52:32.445Z,23.03
2018-05-18T02:53:05.031Z,24.87
2018-05-18T02:53:37.600Z,21.00
2018-05-18T02:54:10.163Z,18.70
2018-05-18T02:54:42.688Z,23.10
2018-05-18T02:55:15.231Z,20.07
2018-05-18T02:55:47.779Z,22.47
2018-05-18T02:56:20.343Z,17.33
2018-05-18T02:56:52.916Z,24.47
2018-05-18T02:57:25.462Z,22.10
2018-05-18T02:57:58.487Z,20.80
2018-05-18T02:58:31.799Z,19.43
2018-05-18T02:59:04.341Z,18.87
2018-05-18T02:59:36.887Z,25.03
2018-05-18T03:00:09.411Z,19.37
2018-05-18T03:00:41.968Z,25.73
2018-05-18T03:01:14.511Z,21.10
2018-05-18T03:01:47.053Z,20.73
2018-05-18T03:02:19.603Z,19.57
2018-05-18T03:02:52.903Z,19.37
2018-05-18T03:03:25.427Z,20.93
2018-05-18T03:03:58.371Z,22.10
2018-05-18T03:04:30.896Z,19.10
2018-05-18T03:05:03.439Z,19.97
2018-05-18T03:05:35.979Z,21.93
2018-05-18T03:06:08.543Z,23.70
2018-05-18T03:06:41.128Z,23.00
2018-05-18T03:07:13.673Z,18.53
2018-05-18T03:07:46.219Z,25.07
2018-05-18T03:08:18.780Z,27.07
2018-05-18T03:08:51.307Z,22.27
2018-05-18T03:09:23.868Z,25.03
2018-05-18T03:09:56.396Z,18.60
2018-05-18T03:10:28.934Z,22.30
2018-05-18T03:11:01.455Z,22.97
2018-05-18T03:11:34.023Z,17.90
2018-05-18T03:12:06.556Z,26.27
2018-05-18T03:12:39.096Z,22.40
2018-05-18T03:13:11.630Z,22.97
2018-05-18T03:13:44.239Z,22.23
2018-05-18T03:14:16.764Z,24.20
2018-05-18T03:14:49.279Z,24.70
2018-05-18T03:15:21.831Z,22.70
2018-05-18T03:15:54.380Z,31.00
2018-05-18T03:16:26.926Z,24.07
2018-05-18T03:16:59.468Z,24.50
2018-05-18T03:17:31.991Z,24.07
2018-05-18T03:18:04.516Z,22.23
2018-05-18T03:18:37.033Z,23.10
2018-05-18T03:19:10.337Z,23.10
2018-05-18T03:19:42.875Z,21.30
2018-05-18T03:20:15.391Z,23.20
2018-05-18T03:20:47.916Z,24.77
2018-05-18T03:21:20.431Z,25.90
2018-05-18T03:21:52.964Z,21.70
2018-05-18T03:22:25.503Z,22.83
2018-05-18T03:22:58.040Z,23.20
2018-05-18T03:23:30.592Z,25.83
2018-05-18T03:24:03.185Z,24.43
2018-05-18T03:24:35.727Z,23.97
2018-05-18T03:25:08.240Z,21.97
2018-05-18T03:25:41.034Z,28.40
2018-05-18T03:26:13.587Z,22.07
2018-05-18T03:26:46.125Z,25.30
2018-05-18T03:27:18.663Z,25.50
2018-05-18T03:27:51.222Z,28.07
2018-05-18T03:28:23.771Z,26.07
2018-05-18T03:28:57.103Z,28.47
2018-05-18T03:29:29.675Z,24.83
2018-05-18T03:30:02.388Z,24.80
2018-05-18T03:30:34.947Z,28.67
2018-05-18T03:31:07.471Z,31.07
2018-05-18T03:31:40.018Z,32.83
2018-05-18T03:32:12.572Z,29.37
2018-05-18T03:32:45.090Z,29.30
2018-05-18T03:33:17.607Z,28.33
2018-05-18T03:33:50.148Z,28.33
2018-05-18T03:34:22.696Z,27.50
2018-05-18T03:34:55.248Z,24.80
2018-05-18T03:35:27.800Z,25.80
2018-05-18T03:36:00.352Z,26.90
2018-05-18T03:36:32.911Z,29.00
2018-05-18T03:37:05.446Z,26.00
2018-05-18T03:37:37.967Z,24.77
2018-05-18T03:38:10.523Z,30.07
2018-05-18T03:38:43.074Z,24.97
2018-05-18T03:39:15.592Z,31.53
2018-05-18T03:39:48.332Z,21.93
2018-05-18T03:40:20.936Z,22.20
2018-05-18T03:40:53.527Z,25.10
2018-05-18T03:41:26.058Z,23.97
2018-05-18T03:41:58.875Z,21.55
2018-05-18T03:42:31.408Z,26.07
2018-05-18T03:43:03.926Z,23.87
2018-05-18T03:43:36.471Z,19.13
2018-05-18T03:44:09.783Z,22.70
2018-05-18T03:44:42.319Z,28.33
2018-05-18T03:45:14.873Z,24.30
2018-05-18T03:45:47.452Z,27.70
2018-05-18T03:46:19.994Z,28.83
2018-05-18T03:46:52.692Z,24.83
2018-05-18T03:47:26.023Z,26.60
2018-05-18T03:47:58.554Z,26.17
2018-05-18T03:48:31.095Z,24.00
2018-05-18T03:49:03.647Z,25.20
2018-05-18T03:49:36.949Z,24.00
2018-05-18T03:50:09.848Z,25.73
2018-05-18T03:50:42.448Z,27.60
2018-05-18T03:51:15.083Z,32.27
2018-05-18T03:51:47.654Z,34.03
2018-05-18T03:52:20.188Z,33.27
2018-05-18T03:52:52.738Z,28.43
2018-05-18T03:53:25.276Z,27.30
2018-05-18T03:53:58.759Z,31.83
2018-05-18T03:54:31.317Z,24.80
2018-05-18T03:55:03.847Z,22.03
2018-05-18T03:55:36.393Z,26.90
2018-05-18T03:56:08.943Z,18.90
2018-05-18T03:56:41.483Z,19.80
2018-05-18T03:57:14.031Z,19.83
2018-05-18T03:57:46.555Z,20.43
2018-05-18T03:58:19.113Z,20.93
2018-05-18T03:58:51.664Z,23.63
2018-05-18T03:59:24.188Z,23.90
2018-05-18T03:59:56.720Z,24.33
2018-05-18T04:00:29.247Z,26.53
2018-05-18T04:01:01.784Z,27.90
2018-05-18T04:01:46.235Z,19.87
2018-05-18T04:02:31.431Z,27.80
2018-05-18T04:03:15.611Z,28.20
2018-05-18T04:03:59.859Z,30.53
2018-05-18T04:04:44.040Z,24.43
2018-05-18T04:05:28.401Z,21.73
2018-05-18T04:06:12.564Z,23.77
2018-05-18T04:06:57.012Z,22.17
2018-05-18T04:08:52.112Z,33.27
2018-05-18T04:09:24.656Z,31.80
2018-05-18T04:09:57.324Z,32.10
2018-05-18T04:10:29.845Z,24.50
2018-05-18T04:11:02.364Z,27.63
2018-05-18T04:11:34.887Z,26.67
2018-05-18T04:12:07.475Z,22.53
2018-05-18T04:12:40.027Z,24.77
2018-05-18T04:13:12.576Z,22.97
2018-05-18T04:13:45.120Z,23.50
2018-05-18T04:14:17.671Z,21.07
2018-05-18T04:14:50.191Z,19.40
2018-05-18T04:15:22.734Z,21.70
2018-05-18T04:15:55.265Z,17.23
2018-05-18T04:16:27.787Z,19.73
2018-05-18T04:17:00.551Z,24.23
2018-05-18T04:17:33.679Z,15.10
2018-05-18T04:18:06.230Z,23.63
2018-05-18T04:18:38.783Z,21.00
2018-05-18T04:19:11.314Z,19.27
2018-05-18T04:19:43.855Z,19.60
2018-05-18T04:20:16.423Z,21.93
2018-05-18T04:20:48.987Z,19.50
2018-05-18T04:21:21.515Z,20.00
2018-05-18T04:21:54.047Z,21.13
2018-05-18T04:22:26.572Z,20.77
2018-05-18T04:22:59.120Z,21.90
2018-05-18T04:23:31.640Z,21.50
2018-05-18T04:24:04.183Z,18.63
2018-05-18T04:24:36.744Z,18.60
2018-05-18T04:25:09.308Z,13.43
2018-05-18T04:25:41.864Z,24.20
2018-05-18T04:26:14.420Z,20.90
2018-05-18T04:26:46.974Z,18.60
2018-05-18T04:27:19.508Z,18.97
2018-05-18T04:27:52.058Z,19.17
2018-05-18T04:28:24.588Z,23.63
2018-05-18T04:28:57.199Z,20.50
2018-05-18T04:29:29.719Z,22.80
2018-05-18T04:30:02.286Z,20.37
2018-05-18T04:30:34.807Z,15.17
2018-05-18T04:31:07.348Z,17.27
2018-05-18T04:31:39.906Z,18.77
2018-05-18T04:32:12.469Z,22.33
2018-05-18T04:32:45.008Z,23.47
2018-05-18T04:33:17.524Z,19.57
2018-05-18T04:33:50.085Z,18.10
2018-05-18T04:34:22.612Z,20.93
2018-05-18T04:34:55.128Z,20.30
2018-05-18T04:35:27.648Z,22.27
2018-05-18T04:36:00.931Z,23.33
2018-05-18T04:36:33.476Z,19.13
2018-05-18T04:37:06.030Z,20.13
2018-05-18T04:37:38.566Z,23.00
2018-05-18T04:38:11.090Z,23.20
2018-05-18T04:38:43.660Z,17.57
2018-05-18T04:39:16.183Z,18.63
2018-05-18T04:39:48.700Z,17.17
2018-05-18T04:40:21.247Z,18.70
2018-05-18T04:40:53.782Z,19.90
2018-05-18T04:41:26.354Z,15.13
2018-05-18T04:41:59.196Z,21.15
2018-05-18T04:42:31.724Z,19.10
2018-05-18T04:43:04.284Z,17.73
2018-05-18T04:43:37.469Z,15.77
2018-05-18T04:44:10.036Z,23.73
2018-05-18T04:44:42.588Z,18.50
2018-05-18T04:45:15.112Z,19.23
2018-05-18T04:45:47.639Z,22.70
2018-05-18T04:46:20.178Z,18.47
2018-05-18T04:46:52.690Z,20.37
2018-05-18T04:47:25.217Z,20.53
2018-05-18T04:47:58.680Z,15.17
2018-05-18T04:48:31.199Z,25.23
2018-05-18T04:49:03.742Z,18.00
2018-05-18T04:49:36.293Z,20.50
2018-05-18T04:50:08.815Z,19.80
2018-05-18T04:50:41.355Z,23.63
2018-05-18T04:51:14.672Z,18.07
2018-05-18T04:51:47.192Z,23.33
2018-05-18T04:52:21.242Z,19.37
2018-05-18T04:52:53.811Z,23.43
2018-05-18T04:53:26.356Z,23.37
2018-05-18T04:53:58.879Z,19.00
2018-05-18T04:54:31.431Z,28.73
2018-05-18T04:55:03.987Z,25.97
2018-05-18T04:55:36.519Z,25.10
2018-05-18T04:56:09.091Z,27.47
2018-05-18T04:56:41.627Z,26.83
2018-05-18T04:57:14.180Z,32.93
2018-05-18T04:57:46.735Z,27.47
2018-05-18T04:58:19.288Z,21.33
2018-05-18T04:58:51.849Z,19.37
2018-05-18T04:59:24.383Z,22.50
2018-05-18T04:59:56.976Z,22.10
2018-05-18T05:00:29.531Z,25.00
2018-05-18T05:01:02.068Z,25.33
2018-05-18T05:01:34.631Z,20.13
2018-05-18T05:02:07.176Z,18.13
2018-05-18T05:02:39.699Z,20.53
2018-05-18T05:03:13.013Z,21.80
2018-05-18T05:03:45.563Z,23.47
2018-05-18T05:04:18.877Z,20.67
2018-05-18T05:04:51.419Z,27.67
2018-05-18T05:05:24.073Z,26.20
2018-05-18T05:05:56.544Z,25.57
2018-05-18T05:06:29.143Z,24.33
2018-05-18T05:07:01.675Z,29.00
2018-05-18T05:07:34.189Z,22.10
2018-05-18T05:08:06.716Z,30.90
2018-05-18T05:08:39.259Z,26.77
2018-05-18T05:09:11.786Z,26.87
2018-05-18T05:09:44.352Z,22.07
2018-05-18T05:10:17.647Z,17.57
2018-05-18T05:10:50.187Z,21.73
2018-05-18T05:11:22.743Z,20.93
2018-05-18T05:11:55.296Z,25.37
2018-05-18T05:12:27.849Z,25.27
2018-05-18T05:13:00.402Z,23.80
2018-05-18T05:13:33.025Z,23.43
2018-05-18T05:14:05.564Z,20.10
2018-05-18T05:14:38.115Z,20.70
2018-05-18T05:15:10.860Z,22.07
2018-05-18T05:15:43.373Z,23.10
2018-05-18T05:16:15.933Z,22.20
2018-05-18T05:16:48.489Z,22.53
2018-05-18T05:17:21.064Z,21.17
2018-05-18T05:17:53.626Z,22.30
2018-05-18T05:18:26.195Z,24.57
2018-05-18T05:18:58.756Z,25.27
2018-05-18T05:19:31.283Z,26.70
2018-05-18T05:20:03.819Z,23.73
2018-05-18T05:20:36.341Z,20.93
2018-05-18T05:21:08.899Z,25.17
2018-05-18T05:21:41.435Z,18.57
2018-05-18T05:22:14.007Z,22.90
2018-05-18T05:22:46.551Z,21.47
2018-05-18T05:23:19.083Z,23.40
2018-05-18T05:23:52.451Z,20.90
2018-05-18T05:24:25.071Z,24.63
2018-05-18T05:24:57.574Z,26.37
2018-05-18T05:25:30.100Z,19.83
2018-05-18T05:26:02.650Z,26.60
2018-05-18T05:26:35.171Z,30.67
2018-05-18T05:27:07.703Z,24.33
2018-05-18T05:27:40.263Z,25.53
2018-05-18T05:28:12.819Z,23.47
2018-05-18T05:28:45.347Z,24.40
2018-05-18T05:29:17.877Z,23.30
2018-05-18T05:29:51.191Z,20.50
2018-05-18T05:30:23.753Z,24.00
2018-05-18T05:30:56.309Z,23.63
2018-05-18T05:31:28.858Z,25.83
2018-05-18T05:32:01.405Z,20.73
2018-05-18T05:32:33.933Z,23.63
2018-05-18T05:33:06.489Z,23.57
2018-05-18T05:33:39.021Z,23.93
2018-05-18T05:34:12.304Z,25.30
2018-05-18T05:34:44.820Z,30.27
2018-05-18T05:35:17.367Z,24.87
2018-05-18T05:35:49.915Z,24.77
2018-05-18T05:36:22.456Z,23.87
2018-05-18T05:36:55.740Z,24.17
2018-05-18T05:37:28.283Z,22.67
2018-05-18T05:38:00.811Z,27.90
2018-05-18T05:38:33.363Z,27.63
2018-05-18T05:39:05.912Z,23.77
2018-05-18T05:39:38.464Z,24.57
2018-05-18T05:40:11.016Z,23.27
2018-05-18T05:40:44.351Z,25.37
2018-05-18T05:41:16.907Z,23.50
2018-05-18T05:41:49.467Z,25.53
2018-05-18T05:42:22.017Z,28.77
2018-05-18T05:42:54.537Z,27.97
2018-05-18T05:43:27.052Z,25.83
2018-05-18T05:43:59.599Z,28.40
2018-05-18T05:44:32.151Z,23.83
2018-05-18T05:45:04.676Z,29.17
2018-05-18T05:45:37.213Z,31.93
2018-05-18T05:46:09.801Z,25.17
2018-05-18T05:46:42.376Z,26.73
2018-05-18T05:47:15.681Z,27.63
2018-05-18T05:47:48.223Z,27.30
2018-05-18T05:48:20.798Z,28.33
2018-05-18T05:48:53.327Z,27.00
2018-05-18T05:49:25.878Z,27.27
2018-05-18T05:49:58.882Z,28.98
2018-05-18T05:50:31.445Z,32.40
2018-05-18T05:51:04.009Z,28.17
2018-05-18T05:51:36.563Z,28.63
2018-05-18T05:52:09.079Z,29.73
2018-05-18T05:52:41.629Z,32.03
2018-05-18T05:53:14.152Z,32.87
2018-05-18T05:53:46.709Z,29.57
2018-05-18T05:54:19.258Z,37.67
2018-05-18T05:54:51.824Z,31.67
2018-05-18T05:55:24.356Z,33.97
2018-05-18T05:55:56.867Z,33.43
2018-05-18T05:56:29.411Z,33.90
2018-05-18T05:57:01.979Z,33.03
2018-05-18T05:57:34.519Z,38.27
2018-05-18T05:58:07.036Z,40.03
2018-05-18T05:58:39.551Z,36.63
2018-05-18T05:59:12.115Z,42.70
2018-05-18T05:59:44.707Z,38.80
2018-05-18T06:00:18.762Z,38.60
2018-05-18T06:00:51.284Z,37.00
2018-05-18T06:01:23.803Z,39.17
2018-05-18T06:01:56.357Z,36.23
2018-05-18T06:02:28.939Z,36.53
2018-05-18T06:03:01.497Z,34.97
2018-05-18T06:03:34.035Z,38.40
2018-05-18T06:04:06.581Z,34.73
2018-05-18T06:04:39.133Z,40.73
2018-05-18T06:05:11.672Z,43.63
2018-05-18T06:05:44.715Z,39.30
2018-05-18T06:06:17.287Z,41.03
2018-05-18T06:06:49.827Z,42.70
2018-05-18T06:07:22.395Z,36.27
2018-05-18T06:07:55.042Z,47.27
2018-05-18T06:08:27.508Z,43.67
2018-05-18T06:09:00.071Z,35.00
2018-05-18T06:09:32.615Z,34.97
2018-05-18T06:10:05.166Z,37.00
2018-05-18T06:10:37.711Z,37.23
2018-05-18T06:11:10.267Z,32.60
2018-05-18T06:11:42.854Z,32.67
2018-05-18T06:12:15.441Z,28.00
2018-05-18T06:12:47.956Z,26.93
2018-05-18T06:13:20.490Z,28.33
2018-05-18T06:13:53.017Z,28.97
2018-05-18T06:14:26.383Z,26.97
2018-05-18T06:14:58.937Z,34.87
2018-05-18T06:15:31.459Z,32.27
2018-05-18T06:16:03.974Z,31.60
2018-05-18T06:16:36.499Z,28.50
2018-05-18T06:17:09.021Z,33.80
2018-05-18T06:17:41.563Z,35.47
2018-05-18T06:18:14.099Z,33.93
2018-05-18T06:18:46.648Z,31.10
2018-05-18T06:19:19.200Z,28.93
2018-05-18T06:19:51.737Z,31.07
2018-05-18T06:20:24.271Z,26.90
2018-05-18T06:20:56.803Z,30.30
2018-05-18T06:21:29.343Z,35.63
2018-05-18T06:22:01.874Z,28.90
2018-05-18T06:22:34.430Z,29.40
2018-05-18T06:23:06.998Z,25.63
2018-05-18T06:23:39.569Z,25.13
2018-05-18T06:24:12.122Z,29.63
2018-05-18T06:24:44.671Z,29.17
2018-05-18T06:25:17.200Z,32.70
2018-05-18T06:25:49.748Z,35.00
2018-05-18T06:26:22.299Z,36.73
2018-05-18T06:26:54.848Z,26.17
2018-05-18T06:27:27.371Z,23.40
2018-05-18T06:27:59.905Z,28.43
2018-05-18T06:28:32.456Z,32.20
2018-05-18T06:29:05.029Z,33.43
2018-05-18T06:29:37.551Z,27.03
2018-05-18T06:30:10.091Z,28.57
2018-05-18T06:30:43.428Z,27.57
2018-05-18T06:31:15.947Z,22.60
2018-05-18T06:31:48.474Z,24.47
2018-05-18T06:32:20.996Z,25.50
2018-05-18T06:32:54.310Z,24.77
2018-05-18T06:33:26.854Z,23.97
2018-05-18T06:33:59.416Z,27.23
2018-05-18T06:34:32.306Z,21.70
2018-05-18T06:35:04.816Z,24.63
2018-05-18T06:35:37.311Z,29.13
2018-05-18T06:36:09.847Z,32.37
2018-05-18T06:36:42.381Z,25.70
2018-05-18T06:37:14.931Z,28.93
2018-05-18T06:37:47.469Z,25.47
2018-05-18T06:38:20.759Z,33.83
2018-05-18T06:38:53.317Z,31.63
2018-05-18T06:39:25.859Z,26.70
2018-05-18T06:39:59.383Z,29.55
2018-05-18T06:40:31.941Z,25.47
2018-05-18T06:41:04.492Z,24.37
2018-05-18T06:41:37.069Z,28.53
2018-05-18T06:42:09.598Z,26.27
2018-05-18T06:42:42.120Z,30.23
2018-05-18T06:43:14.666Z,25.00
2018-05-18T06:43:47.220Z,30.13
2018-05-18T06:44:19.770Z,23.00
2018-05-18T06:44:52.303Z,31.13
2018-05-18T06:45:24.833Z,25.17
2018-05-18T06:45:57.408Z,23.90
2018-05-18T06:46:29.942Z,21.27
2018-05-18T06:47:02.503Z,26.80
2018-05-18T06:47:35.040Z,19.43
2018-05-18T06:48:07.583Z,22.43
2018-05-18T06:48:40.099Z,30.30
2018-05-18T06:49:12.610Z,26.10
2018-05-18T06:49:45.132Z,21.90
2018-05-18T06:50:17.682Z,20.57
2018-05-18T06:50:50.229Z,26.40
2018-05-18T06:51:22.752Z,24.23
2018-05-18T06:51:55.299Z,25.27
2018-05-18T06:52:27.933Z,21.07
2018-05-18T06:53:00.427Z,21.60
2018-05-18T06:53:32.950Z,23.27
2018-05-18T06:54:05.491Z,22.30
2018-05-18T06:54:38.042Z,19.30
2018-05-18T06:55:10.602Z,24.57
2018-05-18T06:55:43.125Z,24.17
2018-05-18T06:56:15.687Z,21.77
2018-05-18T06:56:48.238Z,24.23
2018-05-18T06:57:20.805Z,23.90
2018-05-18T06:57:53.367Z,23.17
2018-05-18T06:58:25.922Z,22.23
2018-05-18T06:58:58.465Z,20.70
2018-05-18T06:59:31.772Z,21.77
2018-05-18T07:00:04.306Z,20.17
2018-05-18T07:00:36.843Z,24.40
2018-05-18T07:01:09.363Z,26.13
2018-05-18T07:01:41.909Z,20.73
2018-05-18T07:02:14.435Z,15.73
2018-05-18T07:02:47.040Z,18.63
2018-05-18T07:03:19.588Z,25.60